createdAt,value
2018-03-29T00:02:02.004Z,99.90
2018-03-29T00:05:03.263Z,99.90
2018-03-29T00:08:04.534Z,99.90
2018-03-29T00:11:05.755Z,99.90
2018-03-29T00:14:06.980Z,99.90
2018-03-29T00:17:08.948Z,99.90
2018-03-29T00:20:10.934Z,99.90
2018-03-29T00:23:12.895Z,99.90
2018-03-29T00:26:14.142Z,99.90
2018-03-29T00:29:15.444Z,99.90
2018-03-29T00:32:16.663Z,99.90
2018-03-29T00:35:17.895Z,99.90
2018-03-29T00:38:19.142Z,99.90
2018-03-29T00:41:20.420Z,99.90
2018-03-29T00:44:21.661Z,99.90
2018-03-29T00:47:23.650Z,99.90
2018-03-29T00:50:24.912Z,99.90
2018-03-29T00:53:43.497Z,99.90
2018-03-29T00:56:44.787Z,99.90
2018-03-29T00:59:46.043Z,99.90
2018-03-29T01:02:47.271Z,99.90
2018-03-29T01:05:48.505Z,99.90
2018-03-29T01:08:49.787Z,99.90
2018-03-29T01:11:51.797Z,99.90
2018-03-29T01:14:53.101Z,99.90
2018-03-29T01:17:54.373Z,99.90
2018-03-29T01:20:55.618Z,99.90
2018-03-29T01:23:56.960Z,99.90
2018-03-29T01:26:58.194Z,99.90
2018-03-29T01:29:59.431Z,99.90
2018-03-29T01:33:01.402Z,99.90
2018-03-29T01:36:02.700Z,99.90
2018-03-29T01:39:03.988Z,99.90
2018-03-29T01:42:05.233Z,99.90
2018-03-29T01:45:06.526Z,99.90
2018-03-29T01:48:14.758Z,99.90
2018-03-29T01:51:15.990Z,99.90
2018-03-29T01:54:17.283Z,99.90
2018-03-29T01:57:18.539Z,99.90
2018-03-29T02:00:19.794Z,99.90
2018-03-29T02:03:21.027Z,99.90
2018-03-29T02:06:23.010Z,99.90
2018-03-29T02:09:25.493Z,99.90
2018-03-29T02:12:26.753Z,99.90
2018-03-29T02:15:28.800Z,99.90
2018-03-29T02:18:30.072Z,99.90
2018-03-29T02:21:31.314Z,99.90
2018-03-29T02:24:32.531Z,99.90
2018-03-29T02:27:34.488Z,99.90
2018-03-29T02:30:35.736Z,99.90
2018-03-29T02:33:36.990Z,99.90
2018-03-29T02:36:38.222Z,99.90
2018-03-29T02:39:39.460Z,99.90
2018-03-29T02:42:41.439Z,99.90
2018-03-29T02:45:43.421Z,99.90
2018-03-29T02:48:45.433Z,99.90
2018-03-29T02:51:46.685Z,99.90
2018-03-29T02:54:47.903Z,99.90
2018-03-29T02:57:49.924Z,99.90
2018-03-29T03:00:51.197Z,99.90
2018-03-29T03:03:52.469Z,99.90
2018-03-29T03:06:53.742Z,99.90
2018-03-29T03:09:55.014Z,99.90
2018-03-29T03:12:56.269Z,99.90
2018-03-29T03:15:57.495Z,99.90
2018-03-29T03:18:58.738Z,99.90
2018-03-29T03:22:00.746Z,99.90
2018-03-29T03:25:02.013Z,99.90
2018-03-29T03:28:03.305Z,99.90
2018-03-29T03:31:04.563Z,99.90
2018-03-29T03:34:05.804Z,99.90
2018-03-29T03:37:07.110Z,99.90
2018-03-29T03:40:08.378Z,99.90
2018-03-29T03:43:09.622Z,99.90
2018-03-29T03:46:10.876Z,99.90
2018-03-29T03:49:12.106Z,99.90
2018-03-29T03:52:13.354Z,99.90
2018-03-29T03:55:15.323Z,99.90
2018-03-29T03:58:16.576Z,99.90
2018-03-29T04:01:17.807Z,99.90
2018-03-29T04:04:19.062Z,99.90
2018-03-29T04:07:20.320Z,99.90
2018-03-29T04:10:21.574Z,99.90
2018-03-29T04:13:22.787Z,99.90
2018-03-29T04:16:24.019Z,99.90
2018-03-29T04:19:25.235Z,99.90
2018-03-29T04:22:27.218Z,99.90
2018-03-29T04:25:29.194Z,99.90
2018-03-29T04:28:31.182Z,99.90
2018-03-29T04:31:33.151Z,99.90
2018-03-29T04:34:35.149Z,99.90
2018-03-29T04:37:36.385Z,99.90
2018-03-29T04:40:37.750Z,99.90
2018-03-29T04:43:39.015Z,99.90
2018-03-29T04:46:40.303Z,99.90
2018-03-29T04:49:42.273Z,99.90
2018-03-29T04:52:44.247Z,99.90
2018-03-29T04:55:46.211Z,99.90
2018-03-29T04:58:47.452Z,99.90
2018-03-29T05:01:48.701Z,99.90
2018-03-29T05:04:49.917Z,99.90
2018-03-29T05:07:51.891Z,99.90
2018-03-29T05:10:53.126Z,99.90
2018-03-29T05:13:54.379Z,99.90
2018-03-29T05:16:55.606Z,99.90
2018-03-29T05:19:56.835Z,99.90
2018-03-29T05:22:58.063Z,99.90
2018-03-29T05:26:05.246Z,99.90
2018-03-29T05:29:06.451Z,99.90
2018-03-29T05:32:07.706Z,99.90
2018-03-29T05:35:09.683Z,99.90
2018-03-29T05:38:10.937Z,99.90
2018-03-29T05:41:12.174Z,99.90
2018-03-29T05:44:13.393Z,99.90
2018-03-29T05:47:14.622Z,99.90
2018-03-29T05:50:15.901Z,99.90
2018-03-29T05:53:17.135Z,99.90
2018-03-29T05:56:18.357Z,99.90
2018-03-29T05:59:20.316Z,99.90
2018-03-29T06:02:21.664Z,99.90
2018-03-29T06:05:22.919Z,99.90
2018-03-29T06:08:24.181Z,99.90
2018-03-29T06:11:26.175Z,99.90
2018-03-29T06:14:33.485Z,99.90
2018-03-29T06:17:34.731Z,99.90
2018-03-29T06:20:36.005Z,99.90
2018-03-29T06:23:37.244Z,99.90
2018-03-29T06:26:38.494Z,99.90
2018-03-29T06:29:39.704Z,99.90
2018-03-29T06:32:41.020Z,99.90
2018-03-29T06:35:42.236Z,99.90
2018-03-29T06:38:43.472Z,99.90
2018-03-29T06:41:44.722Z,99.90
2018-03-29T06:44:45.974Z,99.90
2018-03-29T06:47:47.207Z,99.90
2018-03-29T06:50:49.188Z,99.90
2018-03-29T06:53:51.192Z,99.90
2018-03-29T06:56:52.484Z,99.90
2018-03-29T06:59:53.734Z,99.90
2018-03-29T07:02:54.987Z,99.90
2018-03-29T07:05:56.256Z,99.90
2018-03-29T07:08:57.577Z,99.90
2018-03-29T07:11:59.577Z,99.90
2018-03-29T07:15:01.596Z,99.90
2018-03-29T07:18:04.106Z,99.90
2018-03-29T07:21:06.114Z,99.90
2018-03-29T07:24:07.373Z,99.90
2018-03-29T07:27:08.592Z,99.90
2018-03-29T07:30:09.841Z,99.90
2018-03-29T07:33:11.101Z,99.90
2018-03-29T07:36:12.346Z,99.90
2018-03-29T07:39:14.310Z,99.90
2018-03-29T07:42:16.351Z,99.90
2018-03-29T07:45:17.591Z,99.90
2018-03-29T07:48:20.386Z,99.90
2018-03-29T07:51:23.086Z,99.90
2018-03-29T07:54:24.789Z,99.90
2018-03-29T07:57:26.678Z,99.90
2018-03-29T08:00:29.244Z,99.90
2018-03-29T08:03:30.613Z,99.90
2018-03-29T08:06:31.856Z,99.90
2018-03-29T08:09:33.066Z,99.90
2018-03-29T08:12:34.284Z,99.90
2018-03-29T08:15:35.511Z,99.90
2018-03-29T08:18:37.502Z,99.90
2018-03-29T08:21:39.483Z,99.90
2018-03-29T08:24:41.443Z,99.90
2018-03-29T08:27:42.650Z,99.90
2018-03-29T08:30:43.886Z,99.90
2018-03-29T08:33:45.855Z,99.90
2018-03-29T08:36:47.113Z,99.90
2018-03-29T08:39:48.362Z,99.90
2018-03-29T08:42:49.635Z,99.90
2018-03-29T08:45:50.815Z,99.90
2018-03-29T08:48:52.784Z,99.90
2018-03-29T08:51:54.033Z,99.90
2018-03-29T08:54:55.276Z,99.90
2018-03-29T08:57:56.490Z,99.90
2018-03-29T09:00:58.447Z,99.90
2018-03-29T09:03:59.705Z,99.90
2018-03-29T09:07:00.928Z,99.90
2018-03-29T09:10:02.208Z,99.90
2018-03-29T09:13:03.458Z,99.90
2018-03-29T09:16:04.696Z,99.90
2018-03-29T09:19:05.912Z,99.90
2018-03-29T09:22:07.158Z,99.90
2018-03-29T09:25:08.429Z,99.90
2018-03-29T09:28:09.643Z,99.90
2018-03-29T09:31:10.860Z,99.90
2018-03-29T09:34:12.094Z,99.90
2018-03-29T09:37:13.340Z,99.90
2018-03-29T09:40:14.584Z,99.90
2018-03-29T09:43:16.564Z,99.90
2018-03-29T09:46:17.821Z,99.90
2018-03-29T09:49:19.812Z,99.90
2018-03-29T09:52:21.055Z,99.90
2018-03-29T09:55:22.302Z,99.90
2018-03-29T09:58:23.545Z,99.90
2018-03-29T10:01:24.825Z,99.90
2018-03-29T10:04:26.142Z,99.90
2018-03-29T10:07:33.222Z,99.90
2018-03-29T10:10:35.248Z,99.90
2018-03-29T10:13:36.461Z,99.90
2018-03-29T10:16:38.491Z,99.90
2018-03-29T10:19:39.708Z,99.90
2018-03-29T10:22:41.671Z,99.90
2018-03-29T10:25:42.907Z,99.90
2018-03-29T10:28:44.150Z,99.90
2018-03-29T10:31:45.382Z,99.90
2018-03-29T10:34:46.634Z,99.90
2018-03-29T10:37:48.640Z,99.90
2018-03-29T10:40:49.862Z,99.90
2018-03-29T10:43:51.130Z,99.90
2018-03-29T10:46:52.366Z,99.90
2018-03-29T10:49:53.622Z,99.90
2018-03-29T10:52:54.858Z,99.90
2018-03-29T10:55:56.077Z,99.90
2018-03-29T10:58:57.298Z,99.90
2018-03-29T11:01:58.534Z,99.90
2018-03-29T11:04:59.755Z,99.90
2018-03-29T11:08:00.991Z,99.90
2018-03-29T11:11:02.213Z,99.90
2018-03-29T11:14:04.186Z,99.90
2018-03-29T11:17:06.175Z,99.90
2018-03-29T11:20:07.426Z,99.90
2018-03-29T11:23:09.380Z,99.90
2018-03-29T11:26:10.633Z,99.90
2018-03-29T11:29:11.894Z,99.90
2018-03-29T11:32:13.170Z,99.90
2018-03-29T11:35:14.433Z,99.90
2018-03-29T11:38:15.682Z,99.90
2018-03-29T11:41:16.996Z,99.90
2018-03-29T11:44:18.323Z,99.90
2018-03-29T11:47:19.595Z,99.90
2018-03-29T11:50:20.849Z,99.90
2018-03-29T11:53:22.103Z,99.90
2018-03-29T11:56:23.354Z,99.90
2018-03-29T11:59:24.575Z,99.90
2018-03-29T12:02:26.574Z,99.90
2018-03-29T12:05:27.837Z,99.90
2018-03-29T12:08:29.083Z,99.90
2018-03-29T12:11:30.362Z,99.90
2018-03-29T12:14:31.621Z,99.90
2018-03-29T12:17:32.846Z,99.90
2018-03-29T12:20:34.097Z,99.90
2018-03-29T12:23:35.328Z,99.90
2018-03-29T12:26:36.570Z,99.90
2018-03-29T12:29:37.795Z,99.90
2018-03-29T12:32:39.000Z,99.90
2018-03-29T12:35:40.215Z,99.90
2018-03-29T12:38:41.462Z,99.90
2018-03-29T12:41:43.439Z,99.90
2018-03-29T12:44:44.660Z,99.90
2018-03-29T12:47:45.921Z,99.90
2018-03-29T12:50:47.134Z,99.90
2018-03-29T12:53:48.357Z,99.90
2018-03-29T12:57:08.302Z,99.90
2018-03-29T13:00:09.560Z,99.90
2018-03-29T13:03:10.769Z,99.90
2018-03-29T13:06:12.024Z,99.90
2018-03-29T13:09:13.285Z,99.90
2018-03-29T13:12:14.541Z,99.90
2018-03-29T13:15:16.503Z,99.90
2018-03-29T13:18:17.758Z,99.90
2018-03-29T13:21:19.010Z,99.90
2018-03-29T13:24:20.271Z,99.90
2018-03-29T13:27:21.533Z,99.90
2018-03-29T13:30:22.800Z,99.90
2018-03-29T13:33:24.066Z,99.90
2018-03-29T13:36:25.335Z,99.90
2018-03-29T13:39:26.619Z,99.90
2018-03-29T13:42:28.445Z,99.90
2018-03-29T13:45:29.668Z,99.90
2018-03-29T13:48:32.682Z,99.90
2018-03-29T13:51:34.410Z,99.90
2018-03-29T13:54:36.378Z,99.90
2018-03-29T13:57:38.132Z,99.90
2018-03-29T14:00:39.765Z,99.90
2018-03-29T14:03:41.510Z,99.90
2018-03-29T14:06:42.913Z,99.90
2018-03-29T14:09:44.757Z,99.90
2018-03-29T14:12:46.175Z,99.90
2018-03-29T14:15:48.396Z,99.90
2018-03-29T14:18:49.634Z,98.30
2018-03-29T14:21:51.862Z,98.30
2018-03-29T14:24:53.110Z,98.60
2018-03-29T14:27:54.825Z,98.30
2018-03-29T14:30:56.900Z,98.90
2018-03-29T14:33:59.143Z,99.40
2018-03-29T14:37:07.719Z,99.40
2018-03-29T14:40:09.560Z,99.20
2018-03-29T14:43:12.287Z,99.10
2018-03-29T14:46:14.212Z,99.70
2018-03-29T14:49:15.658Z,98.80
2018-03-29T14:52:18.155Z,99.90
2018-03-29T14:55:19.458Z,99.90
2018-03-29T14:58:21.198Z,99.90
2018-03-29T15:01:22.441Z,99.90
2018-03-29T15:04:24.792Z,99.90
2018-03-29T15:07:26.170Z,99.90
2018-03-29T15:10:28.879Z,99.90
2018-03-29T15:13:30.205Z,99.90
2018-03-29T15:16:32.440Z,99.90
2018-03-29T15:19:33.772Z,99.90
2018-03-29T15:22:35.002Z,99.90
2018-03-29T15:25:37.653Z,99.90
2018-03-29T15:28:39.398Z,99.90
2018-03-29T15:31:40.872Z,99.90
2018-03-29T15:34:42.563Z,99.90
2018-03-29T15:37:43.802Z,99.90
2018-03-29T15:40:45.603Z,99.90
2018-03-29T15:43:46.804Z,99.90
2018-03-29T15:46:48.380Z,99.90
2018-03-29T15:49:50.163Z,99.90
2018-03-29T15:52:51.864Z,99.90
2018-03-29T15:55:54.553Z,99.90
2018-03-29T15:58:55.814Z,99.90
2018-03-29T16:01:57.649Z,99.90
2018-03-29T16:04:59.666Z,99.90
2018-03-29T16:08:08.047Z,99.90
2018-03-29T16:11:09.914Z,99.90
2018-03-29T16:14:12.055Z,99.90
2018-03-29T16:17:13.621Z,99.90
2018-03-29T16:20:14.940Z,99.90
2018-03-29T16:23:16.184Z,99.90
2018-03-29T16:26:17.673Z,99.90
2018-03-29T16:29:18.947Z,99.90
2018-03-29T16:32:21.463Z,99.90
2018-03-29T16:35:24.026Z,99.90
2018-03-29T16:38:26.247Z,99.90
2018-03-29T16:41:28.734Z,99.90
2018-03-29T16:44:30.475Z,99.90
2018-03-29T16:47:31.883Z,99.90
2018-03-29T16:50:34.102Z,99.90
2018-03-29T16:53:35.562Z,99.90
2018-03-29T16:56:37.289Z,99.90
2018-03-29T16:59:38.836Z,99.90
2018-03-29T17:02:40.724Z,99.90
2018-03-29T17:05:44.542Z,99.90
2018-03-29T17:08:47.416Z,99.90
2018-03-29T17:11:49.640Z,99.90
2018-03-29T17:14:50.931Z,99.90
2018-03-29T17:17:52.625Z,99.90
2018-03-29T17:20:53.960Z,99.90
2018-03-29T17:23:55.671Z,99.90
2018-03-29T17:26:56.958Z,99.90
2018-03-29T17:29:58.191Z,99.90
2018-03-29T17:32:59.434Z,99.90
2018-03-29T17:36:01.341Z,99.90
2018-03-29T17:39:02.631Z,99.90
2018-03-29T17:42:03.916Z,99.90
2018-03-29T17:45:05.914Z,99.90
2018-03-29T17:48:08.421Z,99.90
2018-03-29T17:51:09.793Z,99.90
2018-03-29T17:54:11.204Z,99.90
2018-03-29T17:57:12.642Z,99.90
2018-03-29T18:00:14.747Z,99.90
2018-03-29T18:03:18.366Z,99.90
2018-03-29T18:06:20.899Z,99.90
2018-03-29T18:09:22.699Z,99.90
2018-03-29T18:12:25.729Z,99.90
2018-03-29T18:15:27.420Z,99.90
2018-03-29T18:18:28.718Z,99.90
2018-03-29T18:21:31.836Z,99.90
2018-03-29T18:24:33.873Z,99.90
2018-03-29T18:27:35.177Z,99.90
2018-03-29T18:30:36.978Z,99.90
2018-03-29T18:33:38.723Z,99.90
2018-03-29T18:36:40.426Z,99.90
2018-03-29T18:39:41.794Z,99.90
2018-03-29T18:42:43.155Z,99.90
2018-03-29T18:45:44.546Z,99.90
2018-03-29T18:48:45.853Z,99.90
2018-03-29T18:51:47.774Z,99.90
2018-03-29T18:54:49.318Z,99.90
2018-03-29T18:57:50.634Z,99.90
2018-03-29T19:00:52.885Z,99.90
2018-03-29T19:03:54.433Z,99.90
2018-03-29T19:06:55.890Z,99.90
2018-03-29T19:09:58.661Z,99.90
2018-03-29T19:13:01.698Z,99.90
2018-03-29T19:16:03.281Z,99.90
2018-03-29T19:19:04.639Z,99.90
2018-03-29T19:22:06.094Z,99.90
2018-03-29T19:25:07.449Z,99.90
2018-03-29T19:28:08.840Z,99.90
2018-03-29T19:31:10.196Z,99.90
2018-03-29T19:34:11.455Z,99.90
2018-03-29T19:37:13.446Z,99.90
2018-03-29T19:40:15.129Z,99.90
2018-03-29T19:43:16.599Z,99.90
2018-03-29T19:46:20.292Z,99.90
2018-03-29T19:49:22.715Z,99.90
2018-03-29T19:52:26.092Z,99.90
2018-03-29T19:55:30.568Z,99.90
2018-03-29T19:58:32.005Z,99.90
2018-03-29T20:01:33.975Z,99.90
2018-03-29T20:04:35.780Z,99.90
2018-03-29T20:07:37.314Z,99.90
2018-03-29T20:10:39.275Z,99.90
2018-03-29T20:13:41.007Z,99.90
2018-03-29T20:16:42.931Z,99.90
2018-03-29T20:19:46.055Z,99.90
2018-03-29T20:22:47.446Z,99.90
2018-03-29T20:25:49.145Z,99.90
2018-03-29T20:28:50.568Z,99.90
2018-03-29T20:31:52.118Z,99.90
2018-03-29T20:34:53.447Z,99.90
2018-03-29T20:37:54.850Z,99.90
2018-03-29T20:40:56.299Z,99.90
2018-03-29T20:43:59.138Z,99.90
2018-03-29T20:47:00.939Z,99.90
2018-03-29T20:50:02.988Z,99.90
2018-03-29T20:53:04.363Z,99.90
2018-03-29T20:56:06.172Z,99.90
2018-03-29T20:59:07.802Z,99.90
2018-03-29T21:02:09.125Z,99.90
2018-03-29T21:05:10.649Z,99.90
2018-03-29T21:08:12.097Z,99.90
2018-03-29T21:11:13.672Z,99.90
2018-03-29T21:14:15.625Z,99.90
2018-03-29T21:17:16.934Z,99.90
2018-03-29T21:20:18.286Z,99.90
2018-03-29T21:23:20.507Z,99.90
2018-03-29T21:26:23.902Z,99.90
2018-03-29T21:29:25.428Z,99.90
2018-03-29T21:32:26.957Z,99.90
2018-03-29T21:35:28.239Z,99.90
2018-03-29T21:38:30.150Z,99.90
2018-03-29T21:41:32.724Z,99.90
2018-03-29T21:44:34.996Z,99.90
2018-03-29T21:47:36.725Z,99.90
2018-03-29T21:50:38.797Z,99.90
2018-03-29T21:53:40.108Z,99.90
2018-03-29T21:56:41.361Z,99.90
2018-03-29T22:05:05.456Z,99.90
2018-03-29T22:08:06.710Z,99.90
2018-03-29T22:11:07.993Z,99.90
2018-03-29T22:14:09.601Z,99.90
2018-03-29T22:17:10.900Z,99.90
2018-03-29T22:20:12.137Z,99.90
2018-03-29T22:23:13.346Z,99.90
2018-03-29T22:26:14.576Z,99.90
2018-03-29T22:29:15.846Z,99.90
2018-03-29T22:32:17.068Z,99.90
2018-03-29T22:35:19.076Z,99.90
2018-03-29T22:38:20.422Z,99.90
2018-03-29T22:41:21.724Z,99.90
2018-03-29T22:44:22.985Z,99.90
2018-03-29T22:47:24.227Z,99.90
2018-03-29T22:50:25.494Z,99.90
2018-03-29T22:53:26.737Z,99.90
2018-03-29T22:56:28.727Z,99.90
2018-03-29T22:59:29.935Z,99.90
2018-03-29T23:02:31.193Z,99.90
2018-03-29T23:05:32.439Z,99.90
2018-03-29T23:08:33.702Z,99.90
2018-03-29T23:11:34.943Z,99.90
2018-03-29T23:14:36.193Z,99.90
2018-03-29T23:17:38.206Z,99.90
2018-03-29T23:20:39.462Z,99.90
2018-03-29T23:23:40.684Z,99.90
2018-03-29T23:26:41.945Z,99.90
2018-03-29T23:29:43.196Z,99.90
2018-03-29T23:32:44.408Z,99.90
2018-03-29T23:35:45.650Z,99.90
2018-03-29T23:38:47.796Z,99.90
2018-03-29T23:41:49.029Z,99.90
2018-03-29T23:44:50.286Z,99.90
2018-03-29T23:47:51.560Z,99.90
2018-03-29T23:50:52.830Z,99.90
2018-03-29T23:53:54.843Z,99.90
2018-03-29T23:56:56.106Z,99.90
2018-03-29T23:59:57.438Z,99.90
